sensor_id;sensor_type;location;lat;lon;timestamp;P1;durP1;ratioP1;P2;durP2;ratioP2
11763;SDS011;5939;56.522;14.950;2023-03-01T00:01:14;1.87;;;1.33;;
11763;SDS011;5939;56.522;14.950;2023-03-01T00:03:45;1.20;;;1.07;;
11763;SDS011;5939;56.522;14.950;2023-03-01T00:06:11;1.20;;;1.10;;
11763;SDS011;5939;56.522;14.950;2023-03-01T00:08:37;2.30;;;1.27;;
11763;SDS011;5939;56.522;14.950;2023-03-01T00:11:04;1.20;;;1.10;;
11763;SDS011;5939;56.522;14.950;2023-03-01T00:13:33;1.47;;;1.10;;
11763;SDS011;5939;56.522;14.950;2023-03-01T00:16:01;1.27;;;1.17;;
11763;SDS011;5939;56.522;14.950;2023-03-01T00:18:31;1.60;;;1.13;;
11763;SDS011;5939;56.522;14.950;2023-03-01T00:20:56;1.90;;;1.17;;
11763;SDS011;5939;56.522;14.950;2023-03-01T00:23:22;1.70;;;1.17;;
11763;SDS011;5939;56.522;14.950;2023-03-01T00:25:48;1.20;;;1.10;;
11763;SDS011;5939;56.522;14.950;2023-03-01T00:28:14;1.40;;;1.10;;
11763;SDS011;5939;56.522;14.950;2023-03-01T00:30:40;1.53;;;1.20;;
11763;SDS011;5939;56.522;14.950;2023-03-01T00:33:05;1.90;;;1.73;;
11763;SDS011;5939;56.522;14.950;2023-03-01T00:35:32;1.20;;;1.10;;
11763;SDS011;5939;56.522;14.950;2023-03-01T00:37:58;1.23;;;1.00;;
11763;SDS011;5939;56.522;14.950;2023-03-01T00:40:24;1.50;;;1.20;;
11763;SDS011;5939;56.522;14.950;2023-03-01T00:42:51;1.60;;;1.03;;
11763;SDS011;5939;56.522;14.950;2023-03-01T00:45:16;1.20;;;1.10;;
11763;SDS011;5939;56.522;14.950;2023-03-01T00:47:42;1.00;;;0.90;;
11763;SDS011;5939;56.522;14.950;2023-03-01T00:50:08;1.10;;;1.00;;
11763;SDS011;5939;56.522;14.950;2023-03-01T00:52:35;1.00;;;0.90;;
11763;SDS011;5939;56.522;14.950;2023-03-01T00:55:01;1.20;;;1.00;;
11763;SDS011;5939;56.522;14.950;2023-03-01T00:57:26;2.07;;;1.07;;
11763;SDS011;5939;56.522;14.950;2023-03-01T00:59:52;1.23;;;1.10;;
11763;SDS011;5939;56.522;14.950;2023-03-01T01:02:18;1.23;;;1.10;;
11763;SDS011;5939;56.522;14.950;2023-03-01T01:04:45;2.23;;;1.10;;
11763;SDS011;5939;56.522;14.950;2023-03-01T01:07:11;1.57;;;1.03;;
11763;SDS011;5939;56.522;14.950;2023-03-01T01:09:37;1.10;;;1.00;;
11763;SDS011;5939;56.522;14.950;2023-03-01T01:12:02;2.03;;;1.27;;
11763;SDS011;5939;56.522;14.950;2023-03-01T01:14:28;1.47;;;1.10;;
11763;SDS011;5939;56.522;14.950;2023-03-01T01:16:54;1.00;;;0.90;;
11763;SDS011;5939;56.522;14.950;2023-03-01T01:19:20;1.00;;;0.90;;
11763;SDS011;5939;56.522;14.950;2023-03-01T01:21:47;1.23;;;1.03;;
11763;SDS011;5939;56.522;14.950;2023-03-01T01:24:14;1.10;;;1.00;;
11763;SDS011;5939;56.522;14.950;2023-03-01T01:26:40;1.83;;;1.40;;
11763;SDS011;5939;56.522;14.950;2023-03-01T01:29:06;1.17;;;1.07;;
11763;SDS011;5939;56.522;14.950;2023-03-01T01:31:32;1.10;;;1.00;;
11763;SDS011;5939;56.522;14.950;2023-03-01T01:34:00;1.13;;;1.03;;
11763;SDS011;5939;56.522;14.950;2023-03-01T01:36:27;1.97;;;0.90;;
11763;SDS011;5939;56.522;14.950;2023-03-01T01:38:53;1.50;;;1.20;;
11763;SDS011;5939;56.522;14.950;2023-03-01T01:41:19;1.13;;;0.90;;
11763;SDS011;5939;56.522;14.950;2023-03-01T01:43:47;1.03;;;0.87;;
11763;SDS011;5939;56.522;14.950;2023-03-01T01:46:33;1.20;;;1.00;;
11763;SDS011;5939;56.522;14.950;2023-03-01T01:49:07;1.13;;;1.00;;
11763;SDS011;5939;56.522;14.950;2023-03-01T01:51:42;1.33;;;1.23;;
11763;SDS011;5939;56.522;14.950;2023-03-01T01:54:15;1.10;;;0.90;;
11763;SDS011;5939;56.522;14.950;2023-03-01T01:56:55;1.27;;;1.10;;
11763;SDS011;5939;56.522;14.950;2023-03-01T01:59:25;1.20;;;1.10;;
11763;SDS011;5939;56.522;14.950;2023-03-01T02:01:53;1.30;;;1.00;;
11763;SDS011;5939;56.522;14.950;2023-03-01T02:04:20;1.17;;;1.07;;
11763;SDS011;5939;56.522;14.950;2023-03-01T02:06:51;0.90;;;0.90;;
11763;SDS011;5939;56.522;14.950;2023-03-01T02:09:24;3.23;;;1.30;;
11763;SDS011;5939;56.522;14.950;2023-03-01T02:11:51;1.60;;;1.20;;
11763;SDS011;5939;56.522;14.950;2023-03-01T02:14:18;1.67;;;1.10;;
11763;SDS011;5939;56.522;14.950;2023-03-01T02:16:44;1.20;;;1.00;;
11763;SDS011;5939;56.522;14.950;2023-03-01T02:19:11;1.23;;;0.80;;
11763;SDS011;5939;56.522;14.950;2023-03-01T02:22:44;1.20;;;1.10;;
11763;SDS011;5939;56.522;14.950;2023-03-01T02:27:58;0.70;;;0.70;;
11763;SDS011;5939;56.522;14.950;2023-03-01T02:30:26;1.43;;;1.20;;
11763;SDS011;5939;56.522;14.950;2023-03-01T02:32:54;1.00;;;0.97;;
11763;SDS011;5939;56.522;14.950;2023-03-01T02:35:34;1.17;;;1.07;;
11763;SDS011;5939;56.522;14.950;2023-03-01T02:38:02;1.10;;;1.00;;
11763;SDS011;5939;56.522;14.950;2023-03-01T02:40:31;1.00;;;0.97;;
11763;SDS011;5939;56.522;14.950;2023-03-01T02:42:59;1.37;;;1.07;;
11763;SDS011;5939;56.522;14.950;2023-03-01T02:45:25;3.53;;;1.30;;
11763;SDS011;5939;56.522;14.950;2023-03-01T02:47:55;1.27;;;1.00;;
11763;SDS011;5939;56.522;14.950;2023-03-01T02:52:55;1.40;;;1.00;;
11763;SDS011;5939;56.522;14.950;2023-03-01T02:55:28;1.20;;;1.10;;
11763;SDS011;5939;56.522;14.950;2023-03-01T02:57:53;1.37;;;1.07;;
11763;SDS011;5939;56.522;14.950;2023-03-01T03:00:21;1.20;;;1.10;;
11763;SDS011;5939;56.522;14.950;2023-03-01T03:02:54;0.90;;;0.90;;
11763;SDS011;5939;56.522;14.950;2023-03-01T03:05:29;1.10;;;1.00;;
11763;SDS011;5939;56.522;14.950;2023-03-01T03:07:58;1.30;;;1.00;;
11763;SDS011;5939;56.522;14.950;2023-03-01T03:10:27;1.63;;;1.40;;
11763;SDS011;5939;56.522;14.950;2023-03-01T03:12:59;1.30;;;1.10;;
11763;SDS011;5939;56.522;14.950;2023-03-01T03:15:26;1.07;;;1.00;;
11763;SDS011;5939;56.522;14.950;2023-03-01T03:17:54;1.20;;;1.10;;
11763;SDS011;5939;56.522;14.950;2023-03-01T03:20:23;1.07;;;0.97;;
11763;SDS011;5939;56.522;14.950;2023-03-01T03:22:51;1.23;;;1.00;;
11763;SDS011;5939;56.522;14.950;2023-03-01T03:25:19;3.00;;;1.10;;
11763;SDS011;5939;56.522;14.950;2023-03-01T03:27:46;1.73;;;0.90;;
11763;SDS011;5939;56.522;14.950;2023-03-01T03:30:17;1.00;;;0.90;;
11763;SDS011;5939;56.522;14.950;2023-03-01T03:32:45;1.20;;;1.10;;
11763;SDS011;5939;56.522;14.950;2023-03-01T03:35:17;1.00;;;0.90;;
11763;SDS011;5939;56.522;14.950;2023-03-01T03:37:51;1.37;;;1.17;;
11763;SDS011;5939;56.522;14.950;2023-03-01T03:40:27;1.30;;;1.20;;
11763;SDS011;5939;56.522;14.950;2023-03-01T03:42:54;1.60;;;1.10;;
11763;SDS011;5939;56.522;14.950;2023-03-01T03:45:20;1.07;;;0.97;;
11763;SDS011;5939;56.522;14.950;2023-03-01T03:47:46;1.13;;;1.03;;
11763;SDS011;5939;56.522;14.950;2023-03-01T03:50:12;1.77;;;1.00;;
11763;SDS011;5939;56.522;14.950;2023-03-01T03:52:40;1.30;;;1.20;;
11763;SDS011;5939;56.522;14.950;2023-03-01T03:55:07;2.80;;;1.20;;
11763;SDS011;5939;56.522;14.950;2023-03-01T03:57:41;1.07;;;0.90;;
11763;SDS011;5939;56.522;14.950;2023-03-01T04:00:09;1.20;;;1.10;;
11763;SDS011;5939;56.522;14.950;2023-03-01T04:02:40;1.80;;;1.10;;
11763;SDS011;5939;56.522;14.950;2023-03-01T04:05:09;1.17;;;1.07;;
11763;SDS011;5939;56.522;14.950;2023-03-01T04:07:36;1.37;;;0.90;;
11763;SDS011;5939;56.522;14.950;2023-03-01T04:10:06;1.73;;;1.00;;
11763;SDS011;5939;56.522;14.950;2023-03-01T04:12:36;1.30;;;1.20;;
11763;SDS011;5939;56.522;14.950;2023-03-01T04:15:03;2.33;;;1.10;;
11763;SDS011;5939;56.522;14.950;2023-03-01T04:17:38;1.33;;;1.23;;
11763;SDS011;5939;56.522;14.950;2023-03-01T04:20:09;2.47;;;1.30;;
11763;SDS011;5939;56.522;14.950;2023-03-01T04:22:37;1.10;;;1.00;;
11763;SDS011;5939;56.522;14.950;2023-03-01T04:25:03;1.50;;;1.10;;
11763;SDS011;5939;56.522;14.950;2023-03-01T04:27:31;0.93;;;0.90;;
11763;SDS011;5939;56.522;14.950;2023-03-01T04:29:58;1.60;;;0.93;;
11763;SDS011;5939;56.522;14.950;2023-03-01T04:32:24;1.53;;;1.00;;
11763;SDS011;5939;56.522;14.950;2023-03-01T04:34:49;1.10;;;1.00;;
11763;SDS011;5939;56.522;14.950;2023-03-01T04:37:15;1.50;;;1.10;;
11763;SDS011;5939;56.522;14.950;2023-03-01T04:39:41;1.13;;;1.00;;
11763;SDS011;5939;56.522;14.950;2023-03-01T04:42:19;1.10;;;1.00;;
11763;SDS011;5939;56.522;14.950;2023-03-01T04:44:45;1.00;;;0.90;;
11763;SDS011;5939;56.522;14.950;2023-03-01T04:47:11;1.30;;;1.20;;
11763;SDS011;5939;56.522;14.950;2023-03-01T04:49:37;1.33;;;1.07;;
11763;SDS011;5939;56.522;14.950;2023-03-01T04:52:03;1.20;;;1.10;;
11763;SDS011;5939;56.522;14.950;2023-03-01T04:54:32;0.83;;;0.83;;
11763;SDS011;5939;56.522;14.950;2023-03-01T04:56:59;1.23;;;1.00;;
11763;SDS011;5939;56.522;14.950;2023-03-01T04:59:25;1.60;;;1.10;;
11763;SDS011;5939;56.522;14.950;2023-03-01T05:01:52;1.33;;;1.10;;
11763;SDS011;5939;56.522;14.950;2023-03-01T05:04:22;1.20;;;1.00;;
11763;SDS011;5939;56.522;14.950;2023-03-01T05:06:49;1.63;;;1.03;;
11763;SDS011;5939;56.522;14.950;2023-03-01T05:09:15;1.10;;;1.00;;
11763;SDS011;5939;56.522;14.950;2023-03-01T05:11:41;1.73;;;0.90;;
11763;SDS011;5939;56.522;14.950;2023-03-01T05:14:07;1.20;;;1.10;;
11763;SDS011;5939;56.522;14.950;2023-03-01T05:16:34;1.10;;;1.00;;
11763;SDS011;5939;56.522;14.950;2023-03-01T05:19:01;1.10;;;1.00;;
11763;SDS011;5939;56.522;14.950;2023-03-01T05:21:36;1.23;;;1.00;;
11763;SDS011;5939;56.522;14.950;2023-03-01T05:24:23;1.40;;;1.07;;
11763;SDS011;5939;56.522;14.950;2023-03-01T05:26:49;1.20;;;1.10;;
11763;SDS011;5939;56.522;14.950;2023-03-01T05:29:17;2.10;;;1.00;;
11763;SDS011;5939;56.522;14.950;2023-03-01T05:31:50;1.10;;;1.00;;
11763;SDS011;5939;56.522;14.950;2023-03-01T05:34:27;2.77;;;1.00;;
11763;SDS011;5939;56.522;14.950;2023-03-01T05:36:54;1.10;;;1.00;;
11763;SDS011;5939;56.522;14.950;2023-03-01T05:39:20;1.13;;;1.00;;
11763;SDS011;5939;56.522;14.950;2023-03-01T05:41:47;0.83;;;0.83;;
11763;SDS011;5939;56.522;14.950;2023-03-01T05:44:16;0.87;;;0.80;;
11763;SDS011;5939;56.522;14.950;2023-03-01T05:46:42;1.40;;;1.07;;
11763;SDS011;5939;56.522;14.950;2023-03-01T05:49:07;1.20;;;1.03;;
11763;SDS011;5939;56.522;14.950;2023-03-01T05:51:33;1.30;;;1.03;;
11763;SDS011;5939;56.522;14.950;2023-03-01T05:53:59;0.93;;;0.90;;
11763;SDS011;5939;56.522;14.950;2023-03-01T05:56:25;1.17;;;1.07;;
11763;SDS011;5939;56.522;14.950;2023-03-01T05:58:50;1.30;;;1.10;;
11763;SDS011;5939;56.522;14.950;2023-03-01T06:01:16;2.43;;;1.00;;
11763;SDS011;5939;56.522;14.950;2023-03-01T06:03:42;1.00;;;1.00;;
11763;SDS011;5939;56.522;14.950;2023-03-01T06:06:07;1.77;;;0.90;;
11763;SDS011;5939;56.522;14.950;2023-03-01T06:08:33;1.20;;;1.10;;
11763;SDS011;5939;56.522;14.950;2023-03-01T06:10:59;1.37;;;1.20;;
11763;SDS011;5939;56.522;14.950;2023-03-01T06:13:24;1.10;;;1.00;;
11763;SDS011;5939;56.522;14.950;2023-03-01T06:15:50;1.17;;;1.07;;
11763;SDS011;5939;56.522;14.950;2023-03-01T06:18:16;1.10;;;1.00;;
11763;SDS011;5939;56.522;14.950;2023-03-01T06:20:42;1.20;;;1.10;;
11763;SDS011;5939;56.522;14.950;2023-03-01T06:23:08;1.00;;;0.90;;
11763;SDS011;5939;56.522;14.950;2023-03-01T06:25:34;1.13;;;1.00;;
11763;SDS011;5939;56.522;14.950;2023-03-01T06:27:59;1.23;;;1.10;;
11763;SDS011;5939;56.522;14.950;2023-03-01T06:30:25;1.10;;;1.00;;
11763;SDS011;5939;56.522;14.950;2023-03-01T06:32:51;1.70;;;1.20;;
11763;SDS011;5939;56.522;14.950;2023-03-01T06:35:17;1.30;;;1.13;;
11763;SDS011;5939;56.522;14.950;2023-03-01T06:37:44;0.90;;;0.90;;
11763;SDS011;5939;56.522;14.950;2023-03-01T06:40:10;1.57;;;0.80;;
11763;SDS011;5939;56.522;14.950;2023-03-01T06:42:38;2.23;;;1.20;;
11763;SDS011;5939;56.522;14.950;2023-03-01T06:45:05;1.40;;;1.20;;
11763;SDS011;5939;56.522;14.950;2023-03-01T06:47:32;1.03;;;1.00;;
11763;SDS011;5939;56.522;14.950;2023-03-01T06:49:59;1.23;;;1.10;;
11763;SDS011;5939;56.522;14.950;2023-03-01T06:52:25;1.53;;;1.20;;
11763;SDS011;5939;56.522;14.950;2023-03-01T06:54:51;1.03;;;0.97;;
11763;SDS011;5939;56.522;14.950;2023-03-01T06:57:16;1.43;;;1.00;;
11763;SDS011;5939;56.522;14.950;2023-03-01T06:59:42;1.13;;;1.00;;
11763;SDS011;5939;56.522;14.950;2023-03-01T07:02:11;1.93;;;1.20;;
11763;SDS011;5939;56.522;14.950;2023-03-01T07:04:38;1.20;;;1.10;;
11763;SDS011;5939;56.522;14.950;2023-03-01T07:07:04;1.00;;;0.90;;
11763;SDS011;5939;56.522;14.950;2023-03-01T07:09:30;1.10;;;1.00;;
11763;SDS011;5939;56.522;14.950;2023-03-01T07:11:56;1.43;;;0.97;;
11763;SDS011;5939;56.522;14.950;2023-03-01T07:14:21;1.10;;;1.00;;
11763;SDS011;5939;56.522;14.950;2023-03-01T07:16:49;1.10;;;1.00;;
11763;SDS011;5939;56.522;14.950;2023-03-01T07:19:15;1.47;;;1.20;;
11763;SDS011;5939;56.522;14.950;2023-03-01T07:21:41;1.00;;;0.87;;
11763;SDS011;5939;56.522;14.950;2023-03-01T07:24:06;1.10;;;1.00;;
11763;SDS011;5939;56.522;14.950;2023-03-01T07:26:33;1.03;;;0.97;;
11763;SDS011;5939;56.522;14.950;2023-03-01T07:28:59;1.10;;;1.00;;
11763;SDS011;5939;56.522;14.950;2023-03-01T07:31:26;1.17;;;1.07;;
11763;SDS011;5939;56.522;14.950;2023-03-01T07:33:55;0.97;;;0.87;;
11763;SDS011;5939;56.522;14.950;2023-03-01T07:36:21;0.93;;;0.80;;
11763;SDS011;5939;56.522;14.950;2023-03-01T07:38:47;1.17;;;0.97;;
11763;SDS011;5939;56.522;14.950;2023-03-01T07:41:13;1.10;;;1.00;;
11763;SDS011;5939;56.522;14.950;2023-03-01T07:43:39;0.80;;;0.80;;
11763;SDS011;5939;56.522;14.950;2023-03-01T07:46:05;1.00;;;0.90;;
11763;SDS011;5939;56.522;14.950;2023-03-01T07:48:32;1.33;;;1.10;;
11763;SDS011;5939;56.522;14.950;2023-03-01T07:51:02;1.10;;;1.00;;
11763;SDS011;5939;56.522;14.950;2023-03-01T07:53:29;1.07;;;0.90;;
11763;SDS011;5939;56.522;14.950;2023-03-01T07:56:03;1.40;;;1.10;;
11763;SDS011;5939;56.522;14.950;2023-03-01T07:58:37;1.10;;;0.90;;
11763;SDS011;5939;56.522;14.950;2023-03-01T08:01:04;1.20;;;1.10;;
11763;SDS011;5939;56.522;14.950;2023-03-01T08:03:31;0.90;;;0.90;;
11763;SDS011;5939;56.522;14.950;2023-03-01T08:06:01;1.90;;;1.00;;
11763;SDS011;5939;56.522;14.950;2023-03-01T08:08:28;1.00;;;0.90;;
11763;SDS011;5939;56.522;14.950;2023-03-01T08:10:57;0.77;;;0.73;;
11763;SDS011;5939;56.522;14.950;2023-03-01T08:13:26;1.50;;;1.20;;
11763;SDS011;5939;56.522;14.950;2023-03-01T08:15:52;0.87;;;0.80;;
11763;SDS011;5939;56.522;14.950;2023-03-01T08:18:19;1.00;;;0.90;;
11763;SDS011;5939;56.522;14.950;2023-03-01T08:20:45;1.00;;;0.90;;
11763;SDS011;5939;56.522;14.950;2023-03-01T08:23:12;1.20;;;1.10;;
11763;SDS011;5939;56.522;14.950;2023-03-01T08:25:38;0.90;;;0.90;;
11763;SDS011;5939;56.522;14.950;2023-03-01T08:28:04;1.20;;;1.00;;
11763;SDS011;5939;56.522;14.950;2023-03-01T08:30:30;1.20;;;1.00;;
11763;SDS011;5939;56.522;14.950;2023-03-01T08:32:56;1.40;;;1.00;;
11763;SDS011;5939;56.522;14.950;2023-03-01T08:35:21;1.30;;;1.00;;
11763;SDS011;5939;56.522;14.950;2023-03-01T08:37:47;1.50;;;1.07;;
11763;SDS011;5939;56.522;14.950;2023-03-01T08:40:13;0.97;;;0.83;;
11763;SDS011;5939;56.522;14.950;2023-03-01T08:42:40;1.10;;;0.93;;
11763;SDS011;5939;56.522;14.950;2023-03-01T08:45:08;0.90;;;0.80;;
11763;SDS011;5939;56.522;14.950;2023-03-01T08:47:34;1.80;;;1.23;;
11763;SDS011;5939;56.522;14.950;2023-03-01T08:50:01;1.53;;;1.23;;
11763;SDS011;5939;56.522;14.950;2023-03-01T08:52:27;1.43;;;1.10;;
11763;SDS011;5939;56.522;14.950;2023-03-01T08:54:53;1.10;;;0.90;;
11763;SDS011;5939;56.522;14.950;2023-03-01T08:57:19;1.40;;;1.10;;
11763;SDS011;5939;56.522;14.950;2023-03-01T08:59:44;1.53;;;1.20;;
11763;SDS011;5939;56.522;14.950;2023-03-01T09:02:11;1.87;;;1.00;;
11763;SDS011;5939;56.522;14.950;2023-03-01T09:04:38;1.33;;;1.00;;
11763;SDS011;5939;56.522;14.950;2023-03-01T09:07:04;1.20;;;1.00;;
11763;SDS011;5939;56.522;14.950;2023-03-01T09:09:30;1.43;;;1.13;;
11763;SDS011;5939;56.522;14.950;2023-03-01T09:11:56;1.00;;;1.00;;
11763;SDS011;5939;56.522;14.950;2023-03-01T09:14:21;1.10;;;1.00;;
11763;SDS011;5939;56.522;14.950;2023-03-01T09:16:47;1.03;;;1.00;;
11763;SDS011;5939;56.522;14.950;2023-03-01T09:19:13;1.07;;;0.97;;
11763;SDS011;5939;56.522;14.950;2023-03-01T09:21:38;1.17;;;1.07;;
11763;SDS011;5939;56.522;14.950;2023-03-01T09:24:04;2.23;;;1.40;;
11763;SDS011;5939;56.522;14.950;2023-03-01T09:26:31;1.40;;;1.10;;
11763;SDS011;5939;56.522;14.950;2023-03-01T09:28:57;1.30;;;1.20;;
11763;SDS011;5939;56.522;14.950;2023-03-01T09:31:23;1.40;;;1.10;;
11763;SDS011;5939;56.522;14.950;2023-03-01T09:33:50;1.93;;;1.20;;
11763;SDS011;5939;56.522;14.950;2023-03-01T09:36:21;1.30;;;1.20;;
11763;SDS011;5939;56.522;14.950;2023-03-01T09:38:48;3.67;;;1.40;;
11763;SDS011;5939;56.522;14.950;2023-03-01T09:43:47;1.03;;;0.93;;
11763;SDS011;5939;56.522;14.950;2023-03-01T09:46:19;1.90;;;1.17;;
11763;SDS011;5939;56.522;14.950;2023-03-01T09:51:37;1.50;;;1.10;;
11763;SDS011;5939;56.522;14.950;2023-03-01T09:54:02;1.20;;;1.10;;
11763;SDS011;5939;56.522;14.950;2023-03-01T09:56:32;2.33;;;1.13;;
11763;SDS011;5939;56.522;14.950;2023-03-01T09:59:15;1.77;;;1.27;;
11763;SDS011;5939;56.522;14.950;2023-03-01T10:04:52;1.93;;;1.30;;
11763;SDS011;5939;56.522;14.950;2023-03-01T10:10:07;3.43;;;1.00;;
11763;SDS011;5939;56.522;14.950;2023-03-01T10:12:41;1.63;;;1.10;;
11763;SDS011;5939;56.522;14.950;2023-03-01T10:20:24;1.90;;;0.90;;
11763;SDS011;5939;56.522;14.950;2023-03-01T10:22:51;1.20;;;0.90;;
11763;SDS011;5939;56.522;14.950;2023-03-01T10:25:33;2.57;;;1.10;;
11763;SDS011;5939;56.522;14.950;2023-03-01T10:28:10;3.67;;;1.27;;
11763;SDS011;5939;56.522;14.950;2023-03-01T10:30:59;2.67;;;1.20;;
11763;SDS011;5939;56.522;14.950;2023-03-01T10:33:35;1.57;;;1.00;;
11763;SDS011;5939;56.522;14.950;2023-03-01T10:36:04;3.33;;;1.20;;
11763;SDS011;5939;56.522;14.950;2023-03-01T10:38:31;2.07;;;1.00;;
11763;SDS011;5939;56.522;14.950;2023-03-01T10:41:20;1.33;;;1.00;;
11763;SDS011;5939;56.522;14.950;2023-03-01T10:43:56;4.53;;;1.00;;
11763;SDS011;5939;56.522;14.950;2023-03-01T10:46:24;0.83;;;0.83;;
11763;SDS011;5939;56.522;14.950;2023-03-01T10:51:30;1.67;;;1.00;;
11763;SDS011;5939;56.522;14.950;2023-03-01T10:53:57;1.80;;;1.00;;
11763;SDS011;5939;56.522;14.950;2023-03-01T10:56:22;1.37;;;1.10;;
11763;SDS011;5939;56.522;14.950;2023-03-01T11:01:27;2.07;;;1.00;;
11763;SDS011;5939;56.522;14.950;2023-03-01T11:04:10;0.80;;;0.80;;
11763;SDS011;5939;56.522;14.950;2023-03-01T11:06:38;1.33;;;1.00;;
11763;SDS011;5939;56.522;14.950;2023-03-01T11:09:16;1.23;;;1.07;;
11763;SDS011;5939;56.522;14.950;2023-03-01T11:11:45;1.00;;;0.90;;
11763;SDS011;5939;56.522;14.950;2023-03-01T11:16:48;1.53;;;1.10;;
11763;SDS011;5939;56.522;14.950;2023-03-01T11:19:23;1.30;;;0.87;;
11763;SDS011;5939;56.522;14.950;2023-03-01T11:21:56;1.73;;;1.10;;
11763;SDS011;5939;56.522;14.950;2023-03-01T11:24:37;1.33;;;0.90;;
11763;SDS011;5939;56.522;14.950;2023-03-01T11:32:52;1.27;;;0.77;;
11763;SDS011;5939;56.522;14.950;2023-03-01T11:35:27;1.33;;;0.90;;
11763;SDS011;5939;56.522;14.950;2023-03-01T11:38:04;2.43;;;1.10;;
11763;SDS011;5939;56.522;14.950;2023-03-01T11:56:55;1.40;;;0.97;;
11763;SDS011;5939;56.522;14.950;2023-03-01T11:59:51;1.63;;;1.03;;
11763;SDS011;5939;56.522;14.950;2023-03-01T12:05:24;1.70;;;1.00;;
11763;SDS011;5939;56.522;14.950;2023-03-01T12:13:40;1.70;;;0.70;;
11763;SDS011;5939;56.522;14.950;2023-03-01T12:21:49;1.53;;;0.80;;
11763;SDS011;5939;56.522;14.950;2023-03-01T12:30:02;2.20;;;0.90;;
11763;SDS011;5939;56.522;14.950;2023-03-01T12:33:34;2.23;;;0.90;;
11763;SDS011;5939;56.522;14.950;2023-03-01T12:44:23;1.20;;;0.80;;
11763;SDS011;5939;56.522;14.950;2023-03-01T12:50:02;0.87;;;0.87;;
11763;SDS011;5939;56.522;14.950;2023-03-01T12:52:51;1.50;;;0.90;;
11763;SDS011;5939;56.522;14.950;2023-03-01T13:01:00;0.73;;;0.70;;
11763;SDS011;5939;56.522;14.950;2023-03-01T13:15:34;0.60;;;0.60;;
11763;SDS011;5939;56.522;14.950;2023-03-01T13:31:06;0.70;;;0.70;;
11763;SDS011;5939;56.522;14.950;2023-03-01T13:33:39;0.93;;;0.73;;
11763;SDS011;5939;56.522;14.950;2023-03-01T13:36:09;2.00;;;1.30;;
11763;SDS011;5939;56.522;14.950;2023-03-01T13:38:41;1.20;;;1.07;;
11763;SDS011;5939;56.522;14.950;2023-03-01T13:49:48;5.17;;;4.10;;
11763;SDS011;5939;56.522;14.950;2023-03-01T13:55:27;5.33;;;3.80;;
11763;SDS011;5939;56.522;14.950;2023-03-01T13:58:19;5.13;;;4.13;;
11763;SDS011;5939;56.522;14.950;2023-03-01T14:00:54;5.13;;;4.03;;
11763;SDS011;5939;56.522;14.950;2023-03-01T14:03:21;4.53;;;3.93;;
11763;SDS011;5939;56.522;14.950;2023-03-01T14:08:28;4.83;;;3.63;;
11763;SDS011;5939;56.522;14.950;2023-03-01T14:13:47;3.40;;;3.10;;
11763;SDS011;5939;56.522;14.950;2023-03-01T14:21:26;3.30;;;3.00;;
11763;SDS011;5939;56.522;14.950;2023-03-01T14:23:52;3.00;;;2.70;;
11763;SDS011;5939;56.522;14.950;2023-03-01T14:26:22;3.80;;;2.63;;
11763;SDS011;5939;56.522;14.950;2023-03-01T14:28:48;3.23;;;2.70;;
11763;SDS011;5939;56.522;14.950;2023-03-01T14:31:32;3.93;;;3.03;;
11763;SDS011;5939;56.522;14.950;2023-03-01T14:34:02;4.17;;;2.90;;
11763;SDS011;5939;56.522;14.950;2023-03-01T14:36:32;2.63;;;2.30;;
11763;SDS011;5939;56.522;14.950;2023-03-01T14:38:59;2.60;;;2.40;;
11763;SDS011;5939;56.522;14.950;2023-03-01T14:41:30;3.10;;;2.50;;
11763;SDS011;5939;56.522;14.950;2023-03-01T14:44:19;3.30;;;2.50;;
11763;SDS011;5939;56.522;14.950;2023-03-01T14:46:53;2.97;;;2.40;;
11763;SDS011;5939;56.522;14.950;2023-03-01T14:49:21;2.70;;;2.40;;
11763;SDS011;5939;56.522;14.950;2023-03-01T14:51:59;2.80;;;2.20;;
11763;SDS011;5939;56.522;14.950;2023-03-01T14:54:43;3.20;;;2.10;;
11763;SDS011;5939;56.522;14.950;2023-03-01T14:57:16;2.00;;;1.80;;
11763;SDS011;5939;56.522;14.950;2023-03-01T14:59:42;2.20;;;2.00;;
11763;SDS011;5939;56.522;14.950;2023-03-01T15:02:11;2.33;;;1.93;;
11763;SDS011;5939;56.522;14.950;2023-03-01T15:04:48;2.97;;;2.00;;
11763;SDS011;5939;56.522;14.950;2023-03-01T15:07:16;2.00;;;1.80;;
11763;SDS011;5939;56.522;14.950;2023-03-01T15:09:42;2.10;;;1.90;;
11763;SDS011;5939;56.522;14.950;2023-03-01T15:12:25;3.33;;;2.20;;
11763;SDS011;5939;56.522;14.950;2023-03-01T15:14:54;1.57;;;1.30;;
11763;SDS011;5939;56.522;14.950;2023-03-01T15:17:33;1.63;;;1.53;;
11763;SDS011;5939;56.522;14.950;2023-03-01T15:20:02;2.20;;;1.67;;
11763;SDS011;5939;56.522;14.950;2023-03-01T15:22:40;2.33;;;1.70;;
11763;SDS011;5939;56.522;14.950;2023-03-01T15:25:19;2.30;;;1.70;;
11763;SDS011;5939;56.522;14.950;2023-03-01T15:27:54;3.07;;;1.63;;
11763;SDS011;5939;56.522;14.950;2023-03-01T15:30:24;1.80;;;1.40;;
11763;SDS011;5939;56.522;14.950;2023-03-01T15:35:49;1.73;;;1.33;;
11763;SDS011;5939;56.522;14.950;2023-03-01T15:38:26;1.73;;;1.30;;
11763;SDS011;5939;56.522;14.950;2023-03-01T15:40:56;1.87;;;1.50;;
11763;SDS011;5939;56.522;14.950;2023-03-01T15:43:38;2.50;;;1.17;;
11763;SDS011;5939;56.522;14.950;2023-03-01T15:46:31;1.40;;;1.30;;
11763;SDS011;5939;56.522;14.950;2023-03-01T15:49:03;1.90;;;1.27;;
11763;SDS011;5939;56.522;14.950;2023-03-01T15:51:35;1.57;;;1.30;;
11763;SDS011;5939;56.522;14.950;2023-03-01T15:54:04;1.87;;;1.20;;
11763;SDS011;5939;56.522;14.950;2023-03-01T15:56:57;1.47;;;1.17;;
11763;SDS011;5939;56.522;14.950;2023-03-01T15:59:23;1.47;;;1.20;;
11763;SDS011;5939;56.522;14.950;2023-03-01T16:01:48;1.23;;;1.00;;
11763;SDS011;5939;56.522;14.950;2023-03-01T16:04:16;1.07;;;0.90;;
11763;SDS011;5939;56.522;14.950;2023-03-01T16:06:46;1.20;;;1.10;;
11763;SDS011;5939;56.522;14.950;2023-03-01T16:09:20;1.00;;;0.90;;
11763;SDS011;5939;56.522;14.950;2023-03-01T16:11:50;1.10;;;1.00;;
11763;SDS011;5939;56.522;14.950;2023-03-01T16:14:17;1.47;;;1.10;;
11763;SDS011;5939;56.522;14.950;2023-03-01T16:16:43;1.30;;;1.07;;
11763;SDS011;5939;56.522;14.950;2023-03-01T16:19:10;0.93;;;0.87;;
11763;SDS011;5939;56.522;14.950;2023-03-01T16:21:36;1.20;;;0.90;;
11763;SDS011;5939;56.522;14.950;2023-03-01T16:24:03;1.10;;;0.90;;
11763;SDS011;5939;56.522;14.950;2023-03-01T16:26:29;1.40;;;0.90;;
11763;SDS011;5939;56.522;14.950;2023-03-01T16:28:56;1.47;;;0.93;;
11763;SDS011;5939;56.522;14.950;2023-03-01T16:31:22;1.10;;;0.93;;
11763;SDS011;5939;56.522;14.950;2023-03-01T16:33:48;1.87;;;1.00;;
11763;SDS011;5939;56.522;14.950;2023-03-01T16:36:18;1.17;;;0.83;;
11763;SDS011;5939;56.522;14.950;2023-03-01T16:38:44;1.73;;;0.93;;
11763;SDS011;5939;56.522;14.950;2023-03-01T16:41:14;1.70;;;0.87;;
11763;SDS011;5939;56.522;14.950;2023-03-01T16:43:42;1.00;;;0.90;;
11763;SDS011;5939;56.522;14.950;2023-03-01T16:46:11;1.03;;;0.90;;
11763;SDS011;5939;56.522;14.950;2023-03-01T16:48:39;1.53;;;0.80;;
11763;SDS011;5939;56.522;14.950;2023-03-01T16:51:05;1.00;;;0.90;;
11763;SDS011;5939;56.522;14.950;2023-03-01T16:53:32;1.07;;;0.80;;
11763;SDS011;5939;56.522;14.950;2023-03-01T16:55:59;0.77;;;0.77;;
11763;SDS011;5939;56.522;14.950;2023-03-01T16:58:25;1.30;;;0.90;;
11763;SDS011;5939;56.522;14.950;2023-03-01T17:00:54;1.43;;;0.80;;
11763;SDS011;5939;56.522;14.950;2023-03-01T17:03:21;1.33;;;0.83;;
11763;SDS011;5939;56.522;14.950;2023-03-01T17:05:47;1.27;;;0.90;;
11763;SDS011;5939;56.522;14.950;2023-03-01T17:08:13;1.20;;;0.87;;
11763;SDS011;5939;56.522;14.950;2023-03-01T17:10:39;0.80;;;0.80;;
11763;SDS011;5939;56.522;14.950;2023-03-01T17:13:07;1.00;;;0.90;;
11763;SDS011;5939;56.522;14.950;2023-03-01T17:15:34;0.70;;;0.70;;
11763;SDS011;5939;56.522;14.950;2023-03-01T17:18:00;0.77;;;0.70;;
11763;SDS011;5939;56.522;14.950;2023-03-01T17:20:26;1.30;;;0.97;;